WUK21XC LFLS-EGKK
Flight info
| Callsign | WUK21XC |
|---|---|
| Flight time | N/A |
| Altitude | 34000 |
| Route | DANBO A2 BUSIL DCT AMORO DCT MOMIL DCT BAGBI DCT SIZZA DCT LAULY DCT BRY DCT CLM DCT KOPOR DCT KESAX DCT KUNAV |
| Aircraft | A321/M-SDE3FGHIRWY/LB1 |
Departure
| Time | 2026-04-16 17:18 |
|---|---|
| Airport | Grenoble Alpes Isère Airport (LFLS) |
Arrival
| Time | N/A |
|---|---|
| Airport | London Gatwick Airport (EGKK) |
| Time | Latitude | Longitude | Altitude | Speed | Heading |
|---|---|---|---|---|---|
| 2026-04-16 16:52 | 45.36084 | 5.33141 | 1283 ft | 0 kts | 227° |
| 2026-04-16 17:10 | 45.36095 | 5.33158 | 1283 ft | 4 kts | 224° |
| 2026-04-16 17:10 | 45.36116 | 5.33182 | 1283 ft | 4 kts | 207° |
| 2026-04-16 17:11 | 45.36135 | 5.33190 | 1283 ft | 4 kts | 137° |
| 2026-04-16 17:11 | 45.36138 | 5.33188 | 1283 ft | 1 kts | 83° |
| 2026-04-16 17:13 | 45.36138 | 5.33191 | 1283 ft | 2 kts | 83° |
| 2026-04-16 17:13 | 45.36140 | 5.33251 | 1284 ft | 9 kts | 89° |
| 2026-04-16 17:13 | 45.36140 | 5.33351 | 1287 ft | 13 kts | 90° |
| 2026-04-16 17:13 | 45.36140 | 5.33490 | 1291 ft | 13 kts | 90° |
| 2026-04-16 17:14 | 45.36139 | 5.33623 | 1293 ft | 15 kts | 90° |
| 2026-04-16 17:14 | 45.36139 | 5.33791 | 1296 ft | 17 kts | 90° |
| 2026-04-16 17:14 | 45.36138 | 5.33948 | 1300 ft | 15 kts | 90° |
| 2026-04-16 17:14 | 45.36138 | 5.34095 | 1302 ft | 15 kts | 90° |
| 2026-04-16 17:15 | 45.36138 | 5.34249 | 1304 ft | 18 kts | 90° |
| 2026-04-16 17:15 | 45.36138 | 5.34452 | 1309 ft | 22 kts | 90° |
| 2026-04-16 17:15 | 45.36138 | 5.34659 | 1312 ft | 21 kts | 90° |
| 2026-04-16 17:15 | 45.36156 | 5.34837 | 1315 ft | 15 kts | 50° |
| 2026-04-16 17:16 | 45.36161 | 5.34843 | 1316 ft | 0 kts | 43° |
| 2026-04-16 17:16 | 45.36176 | 5.34857 | 1316 ft | 10 kts | 26° |
| 2026-04-16 17:16 | 45.36271 | 5.34797 | 1315 ft | 19 kts | 307° |
| 2026-04-16 17:16 | 45.36291 | 5.34696 | 1313 ft | 2 kts | 269° |
| 2026-04-16 17:17 | 45.36291 | 5.34688 | 1313 ft | 7 kts | 269° |
| 2026-04-16 17:17 | 45.36295 | 5.34240 | 1310 ft | 81 kts | 270° |
| 2026-04-16 17:17 | 45.36295 | 5.33122 | 1280 ft | 143 kts | 270° |
| 2026-04-16 17:17 | 45.36298 | 5.31534 | 1589 ft | 164 kts | 275° |
| 2026-04-16 17:18 | 45.36204 | 5.29902 | 2274 ft | 171 kts | 255° |
| 2026-04-16 17:18 | 45.35389 | 5.28677 | 2873 ft | 184 kts | 201° |
| 2026-04-16 17:18 | 45.34124 | 5.28702 | 3259 ft | 193 kts | 151° |
| 2026-04-16 17:18 | 45.33222 | 5.30103 | 3415 ft | 201 kts | 101° |
| 2026-04-16 17:19 | 45.33195 | 5.32119 | 3594 ft | 214 kts | 76° |
| 2026-04-16 17:19 | 45.33557 | 5.34250 | 3878 ft | 228 kts | 70° |
| 2026-04-16 17:19 | 45.34013 | 5.36411 | 4593 ft | 228 kts | 70° |
| 2026-04-16 17:19 | 45.34495 | 5.38555 | 5318 ft | 227 kts | 63° |
| 2026-04-16 17:20 | 45.35493 | 5.40252 | 5970 ft | 227 kts | 32° |
| 2026-04-16 17:20 | 45.37030 | 5.41032 | 6259 ft | 248 kts | 9° |
| 2026-04-16 17:20 | 45.38786 | 5.41434 | 6721 ft | 260 kts | 10° |
| 2026-04-16 17:20 | 45.40585 | 5.41854 | 7347 ft | 265 kts | 10° |
| 2026-04-16 17:21 | 45.42426 | 5.42295 | 7929 ft | 272 kts | 10° |
| 2026-04-16 17:21 | 45.44309 | 5.42754 | 8550 ft | 277 kts | 9° |
| 2026-04-16 17:21 | 45.46231 | 5.43229 | 9176 ft | 282 kts | 8° |
| 2026-04-16 17:21 | 45.48204 | 5.43336 | 9781 ft | 287 kts | 353° |
| 2026-04-16 17:22 | 45.50149 | 5.42662 | 10370 ft | 290 kts | 336° |
| 2026-04-16 17:22 | 45.51934 | 5.41288 | 10856 ft | 298 kts | 328° |
| 2026-04-16 17:22 | 45.53769 | 5.39682 | 10985 ft | 320 kts | 327° |
| 2026-04-16 17:22 | 45.55727 | 5.37961 | 11110 ft | 341 kts | 327° |
| 2026-04-16 17:23 | 45.57808 | 5.36131 | 11235 ft | 360 kts | 328° |
| 2026-04-16 17:23 | 45.59997 | 5.34211 | 11347 ft | 378 kts | 327° |
| 2026-04-16 17:23 | 45.62283 | 5.32204 | 11516 ft | 394 kts | 328° |
| 2026-04-16 17:23 | 45.64647 | 5.30131 | 11966 ft | 400 kts | 327° |
| 2026-04-16 17:24 | 45.67026 | 5.28043 | 12582 ft | 403 kts | 327° |
| 2026-04-16 17:24 | 45.69420 | 5.25945 | 13256 ft | 404 kts | 327° |
| 2026-04-16 17:24 | 45.71792 | 5.23865 | 13861 ft | 407 kts | 327° |
| 2026-04-16 17:24 | 45.74219 | 5.21733 | 14360 ft | 411 kts | 327° |
| 2026-04-16 17:25 | 45.76670 | 5.19579 | 14865 ft | 414 kts | 327° |
| 2026-04-16 17:25 | 45.79132 | 5.17413 | 15367 ft | 417 kts | 327° |
| 2026-04-16 17:25 | 45.81608 | 5.15230 | 15879 ft | 419 kts | 327° |
| 2026-04-16 17:25 | 45.84099 | 5.13028 | 16370 ft | 421 kts | 327° |
| 2026-04-16 17:26 | 45.86598 | 5.10816 | 16856 ft | 424 kts | 327° |
| 2026-04-16 17:26 | 45.89117 | 5.08587 | 17288 ft | 427 kts | 327° |
| 2026-04-16 17:26 | 45.91655 | 5.06341 | 17756 ft | 430 kts | 327° |
| 2026-04-16 17:26 | 45.94207 | 5.04072 | 18203 ft | 432 kts | 327° |
| 2026-04-16 17:27 | 45.96765 | 5.01774 | 18600 ft | 435 kts | 327° |
| 2026-04-16 17:27 | 45.99338 | 4.99447 | 18982 ft | 437 kts | 326° |
| 2026-04-16 17:27 | 46.01915 | 4.97113 | 19372 ft | 439 kts | 327° |
| 2026-04-16 17:27 | 46.04505 | 4.94769 | 19767 ft | 441 kts | 327° |
| 2026-04-16 17:28 | 46.07113 | 4.92412 | 20174 ft | 443 kts | 327° |
| 2026-04-16 17:28 | 46.09721 | 4.90056 | 20575 ft | 444 kts | 327° |
| 2026-04-16 17:28 | 46.12315 | 4.87709 | 20955 ft | 446 kts | 327° |
| 2026-04-16 17:28 | 46.14948 | 4.85321 | 21332 ft | 448 kts | 327° |
| 2026-04-16 17:29 | 46.17593 | 4.82921 | 21700 ft | 450 kts | 326° |
| 2026-04-16 17:29 | 46.20248 | 4.80508 | 22048 ft | 452 kts | 326° |
| 2026-04-16 17:29 | 46.22913 | 4.78081 | 22410 ft | 454 kts | 326° |
| 2026-04-16 17:29 | 46.25591 | 4.75639 | 22771 ft | 455 kts | 326° |
| 2026-04-16 17:30 | 46.28273 | 4.73192 | 23144 ft | 457 kts | 326° |
| 2026-04-16 17:30 | 46.30970 | 4.70734 | 23536 ft | 459 kts | 327° |
| 2026-04-16 17:30 | 46.33690 | 4.68292 | 23861 ft | 461 kts | 327° |
| 2026-04-16 17:30 | 46.36430 | 4.65861 | 24179 ft | 461 kts | 327° |
| 2026-04-16 17:31 | 46.39162 | 4.63448 | 24600 ft | 459 kts | 327° |
| 2026-04-16 17:31 | 46.41885 | 4.61043 | 25003 ft | 458 kts | 327° |
| 2026-04-16 17:31 | 46.44601 | 4.58646 | 25421 ft | 456 kts | 329° |
| 2026-04-16 17:31 | 46.47453 | 4.56649 | 25822 ft | 457 kts | 338° |
| 2026-04-16 17:32 | 46.50503 | 4.55340 | 26240 ft | 458 kts | 346° |
| 2026-04-16 17:32 | 46.53666 | 4.54779 | 26641 ft | 459 kts | 356° |
| 2026-04-16 17:32 | 46.56860 | 4.54910 | 27058 ft | 460 kts | 1° |
| 2026-04-16 17:32 | 46.60049 | 4.55337 | 27468 ft | 459 kts | 4° |
| 2026-04-16 17:33 | 46.63208 | 4.55945 | 27872 ft | 459 kts | 6° |
| 2026-04-16 17:33 | 46.66362 | 4.56649 | 28296 ft | 458 kts | 6° |
| 2026-04-16 17:33 | 46.69470 | 4.57360 | 28695 ft | 457 kts | 6° |
| 2026-04-16 17:33 | 46.72608 | 4.58048 | 29113 ft | 455 kts | 5° |
| 2026-04-16 17:34 | 46.75741 | 4.58681 | 29515 ft | 454 kts | 4° |
| 2026-04-16 17:34 | 46.78883 | 4.58939 | 29922 ft | 449 kts | 355° |
| 2026-04-16 17:34 | 46.81974 | 4.58434 | 30308 ft | 445 kts | 346° |
| 2026-04-16 17:34 | 46.84954 | 4.57269 | 30634 ft | 442 kts | 338° |
| 2026-04-16 17:35 | 46.87785 | 4.55534 | 30981 ft | 440 kts | 334° |
| 2026-04-16 17:35 | 46.90574 | 4.53718 | 31313 ft | 438 kts | 334° |
| 2026-04-16 17:35 | 46.93357 | 4.51912 | 31673 ft | 437 kts | 334° |
| 2026-04-16 17:35 | 46.96137 | 4.50108 | 32017 ft | 435 kts | 333° |
| 2026-04-16 17:36 | 46.98905 | 4.48311 | 32336 ft | 435 kts | 333° |
| 2026-04-16 17:36 | 47.01669 | 4.46515 | 32654 ft | 434 kts | 333° |
| 2026-04-16 17:36 | 47.04388 | 4.44740 | 32978 ft | 433 kts | 333° |
| 2026-04-16 17:36 | 47.07134 | 4.42938 | 33313 ft | 432 kts | 333° |
| 2026-04-16 17:37 | 47.09870 | 4.41136 | 33654 ft | 430 kts | 333° |
| 2026-04-16 17:37 | 47.12604 | 4.39335 | 33998 ft | 429 kts | 333° |
| 2026-04-16 17:37 | 47.15333 | 4.37538 | 34192 ft | 429 kts | 333° |
| 2026-04-16 17:38 | 47.20824 | 4.33912 | 34221 ft | 434 kts | 333° |
| 2026-04-16 17:38 | 47.26334 | 4.30276 | 34221 ft | 434 kts | 333° |
| 2026-04-16 17:39 | 47.31852 | 4.26634 | 34233 ft | 434 kts | 332° |
| 2026-04-16 17:39 | 47.37326 | 4.23014 | 34224 ft | 433 kts | 332° |
| 2026-04-16 17:40 | 47.42826 | 4.19364 | 34231 ft | 434 kts | 332° |
| 2026-04-16 17:40 | 47.48335 | 4.15693 | 34236 ft | 434 kts | 332° |
| 2026-04-16 17:41 | 47.53853 | 4.12007 | 34238 ft | 435 kts | 332° |
| 2026-04-16 17:41 | 47.59347 | 4.08339 | 34236 ft | 436 kts | 332° |
| 2026-04-16 17:42 | 47.64876 | 4.04642 | 34239 ft | 436 kts | 332° |
| 2026-04-16 17:42 | 47.70410 | 4.00928 | 34245 ft | 437 kts | 332° |
| 2026-04-16 17:43 | 47.75953 | 3.97208 | 34255 ft | 437 kts | 332° |
| 2026-04-16 17:43 | 47.81489 | 3.93486 | 34254 ft | 436 kts | 332° |
| 2026-04-16 17:44 | 47.87025 | 3.89745 | 34251 ft | 436 kts | 332° |
| 2026-04-16 17:44 | 47.92551 | 3.85997 | 34250 ft | 436 kts | 332° |
| 2026-04-16 17:45 | 47.98078 | 3.82246 | 34265 ft | 436 kts | 331° |
| 2026-04-16 17:45 | 48.03602 | 3.78495 | 34261 ft | 436 kts | 331° |
| 2026-04-16 17:46 | 48.09122 | 3.74742 | 34256 ft | 436 kts | 331° |
| 2026-04-16 17:46 | 48.14546 | 3.70740 | 34254 ft | 432 kts | 323° |
| 2026-04-16 17:47 | 48.19012 | 3.64895 | 34267 ft | 425 kts | 310° |
| 2026-04-16 17:47 | 48.23023 | 3.58377 | 34262 ft | 425 kts | 310° |
| 2026-04-16 17:48 | 48.27044 | 3.51853 | 34258 ft | 425 kts | 310° |
| 2026-04-16 17:48 | 48.31048 | 3.45321 | 34256 ft | 425 kts | 310° |
| 2026-04-16 17:49 | 48.35025 | 3.38810 | 34253 ft | 425 kts | 309° |
| 2026-04-16 17:49 | 48.39064 | 3.32287 | 34264 ft | 427 kts | 314° |
| 2026-04-16 17:50 | 48.44057 | 3.27334 | 34257 ft | 436 kts | 332° |
| 2026-04-16 17:50 | 48.49663 | 3.23773 | 34251 ft | 437 kts | 332° |
| 2026-04-16 17:51 | 48.55268 | 3.20194 | 34251 ft | 437 kts | 332° |
| 2026-04-16 17:51 | 48.60872 | 3.16595 | 34260 ft | 438 kts | 332° |
| 2026-04-16 17:52 | 48.66479 | 3.12993 | 34264 ft | 438 kts | 332° |
| 2026-04-16 17:52 | 48.72091 | 3.09376 | 34259 ft | 438 kts | 332° |
| 2026-04-16 17:53 | 48.77659 | 3.05784 | 34254 ft | 438 kts | 332° |
| 2026-04-16 17:53 | 48.83273 | 3.02157 | 34238 ft | 439 kts | 332° |
| 2026-04-16 17:54 | 48.88619 | 2.97793 | 34238 ft | 435 kts | 325° |
| 2026-04-16 17:54 | 48.93873 | 2.93191 | 34237 ft | 436 kts | 325° |
| 2026-04-16 17:55 | 48.99136 | 2.88574 | 34241 ft | 437 kts | 325° |
| 2026-04-16 17:55 | 49.04405 | 2.83944 | 34250 ft | 437 kts | 325° |
| 2026-04-16 17:56 | 49.09682 | 2.79296 | 34251 ft | 437 kts | 325° |
| 2026-04-16 17:56 | 49.17552 | 2.72352 | 34251 ft | 437 kts | 325° |
| 2026-04-16 17:57 | 49.22823 | 2.67679 | 34263 ft | 437 kts | 325° |
| 2026-04-16 17:57 | 49.28088 | 2.62997 | 34278 ft | 438 kts | 324° |
| 2026-04-16 17:58 | 49.32473 | 2.59097 | 34268 ft | 438 kts | 324° |
| 2026-04-16 17:58 | 49.37746 | 2.54392 | 34259 ft | 438 kts | 324° |
| 2026-04-16 17:59 | 49.43013 | 2.49690 | 34257 ft | 438 kts | 324° |
| 2026-04-16 17:59 | 49.48277 | 2.44975 | 34255 ft | 438 kts | 324° |
| 2026-04-16 18:00 | 49.53254 | 2.39724 | 34260 ft | 430 kts | 314° |
| 2026-04-16 18:00 | 49.57777 | 2.33700 | 34257 ft | 430 kts | 314° |
| 2026-04-16 18:01 | 49.62308 | 2.27689 | 34258 ft | 430 kts | 314° |
| 2026-04-16 18:01 | 49.66842 | 2.21669 | 34253 ft | 430 kts | 314° |
| 2026-04-16 18:02 | 49.71350 | 2.15651 | 34245 ft | 431 kts | 314° |
| 2026-04-16 18:02 | 49.75887 | 2.09590 | 34268 ft | 431 kts | 314° |
| 2026-04-16 18:03 | 49.80418 | 2.03521 | 34268 ft | 430 kts | 314° |
| 2026-04-16 18:03 | 49.84937 | 1.97437 | 34102 ft | 431 kts | 314° |
| 2026-04-16 18:04 | 49.87200 | 1.94381 | 33643 ft | 430 kts | 314° |
| 2026-04-16 18:04 | 49.89460 | 1.91332 | 33161 ft | 431 kts | 314° |
| 2026-04-16 18:04 | 49.91724 | 1.88276 | 32727 ft | 432 kts | 314° |
| 2026-04-16 18:04 | 49.93992 | 1.85211 | 32285 ft | 433 kts | 314° |
| 2026-04-16 18:05 | 49.96264 | 1.82133 | 31873 ft | 433 kts | 314° |
| 2026-04-16 18:05 | 49.98516 | 1.79082 | 31442 ft | 427 kts | 313° |
| 2026-04-16 18:05 | 50.00740 | 1.76073 | 31011 ft | 421 kts | 313° |
| 2026-04-16 18:05 | 50.02909 | 1.73133 | 30605 ft | 415 kts | 313° |
| 2026-04-16 18:06 | 50.05069 | 1.70197 | 30178 ft | 409 kts | 313° |
| 2026-04-16 18:06 | 50.07195 | 1.67294 | 29704 ft | 404 kts | 313° |
| 2026-04-16 18:06 | 50.09298 | 1.64424 | 29216 ft | 398 kts | 313° |
| 2026-04-16 18:06 | 50.11373 | 1.61603 | 28741 ft | 393 kts | 314° |
| 2026-04-16 18:07 | 50.13422 | 1.58832 | 28280 ft | 388 kts | 314° |
| 2026-04-16 18:07 | 50.15451 | 1.56088 | 27832 ft | 384 kts | 314° |
| 2026-04-16 18:07 | 50.17458 | 1.53365 | 27389 ft | 379 kts | 314° |
| 2026-04-16 18:07 | 50.19443 | 1.50671 | 26971 ft | 375 kts | 314° |
| 2026-04-16 18:08 | 50.21404 | 1.47999 | 26542 ft | 372 kts | 314° |
| 2026-04-16 18:08 | 50.23343 | 1.45353 | 26118 ft | 369 kts | 314° |
| 2026-04-16 18:08 | 50.25266 | 1.42725 | 25699 ft | 366 kts | 314° |
| 2026-04-16 18:08 | 50.27152 | 1.40147 | 25290 ft | 364 kts | 314° |
| 2026-04-16 18:09 | 50.29048 | 1.37547 | 24882 ft | 362 kts | 314° |
| 2026-04-16 18:09 | 50.30936 | 1.34953 | 24485 ft | 359 kts | 314° |
| 2026-04-16 18:09 | 50.32802 | 1.32380 | 24089 ft | 357 kts | 314° |
| 2026-04-16 18:09 | 50.34664 | 1.29818 | 23681 ft | 355 kts | 314° |
| 2026-04-16 18:10 | 50.36511 | 1.27278 | 23207 ft | 352 kts | 314° |
| 2026-04-16 18:10 | 50.38339 | 1.24759 | 22750 ft | 349 kts | 314° |
| 2026-04-16 18:10 | 50.40165 | 1.22246 | 22298 ft | 347 kts | 314° |
| 2026-04-16 18:10 | 50.41966 | 1.19763 | 21869 ft | 344 kts | 314° |
| 2026-04-16 18:11 | 50.43754 | 1.17293 | 21431 ft | 341 kts | 314° |
| 2026-04-16 18:11 | 50.45525 | 1.14842 | 20991 ft | 338 kts | 314° |
| 2026-04-16 18:11 | 50.47287 | 1.12398 | 20562 ft | 336 kts | 314° |
| 2026-04-16 18:11 | 50.49031 | 1.09981 | 20142 ft | 333 kts | 314° |
| 2026-04-16 18:12 | 50.50763 | 1.07579 | 19723 ft | 331 kts | 314° |
| 2026-04-16 18:12 | 50.52391 | 1.05067 | 19315 ft | 326 kts | 309° |
| 2026-04-16 18:12 | 50.53813 | 1.02668 | 18929 ft | 324 kts | 309° |
| 2026-04-16 18:12 | 50.55347 | 1.00084 | 18532 ft | 322 kts | 309° |
| 2026-04-16 18:13 | 50.56874 | 0.97512 | 18095 ft | 320 kts | 309° |
| 2026-04-16 18:13 | 50.58387 | 0.94961 | 17644 ft | 318 kts | 309° |
| 2026-04-16 18:13 | 50.59891 | 0.92418 | 17207 ft | 317 kts | 309° |
| 2026-04-16 18:13 | 50.61393 | 0.89876 | 16760 ft | 315 kts | 309° |
| 2026-04-16 18:14 | 50.62720 | 0.87630 | 16381 ft | 314 kts | 309° |
| 2026-04-16 18:14 | 50.64168 | 0.85133 | 15960 ft | 312 kts | 308° |
| 2026-04-16 18:14 | 50.65591 | 0.82579 | 15591 ft | 291 kts | 306° |